| time (UTC) | temp C | wind direction | speed KPH | gust KPH | rain 1hr cm | rain 24hr cm | rain mn cm | humidity % | barometer mb |
| 20260831125054 | 18 | 0 | 0.0 | 11.3 | 0.00 | 0.23 | 0.23 | 90 | 1021.5 |
| 20260831124607 | 18 | 172 | 3.2 | 11.3 | 0.00 | 0.23 | 0.23 | 90 | 1021.3 |
| 20260831124054 | 18 | 167 | 6.4 | 11.3 | 0.00 | 0.23 | 0.23 | 90 | 1021.1 |
| 20260831123556 | 18 | 168 | 4.8 | 11.3 | 0.00 | 0.23 | 0.23 | 90 | 1021.1 |
| 20260831123105 | 18 | 154 | 8.0 | 17.7 | 0.00 | 0.23 | 0.23 | 90 | 1021.0 |
| 20260831122556 | 18 | 160 | 3.2 | 17.7 | 0.00 | 0.23 | 0.23 | 90 | 1020.9 |
| 20260831122055 | 19 | 143 | 11.3 | 17.7 | 0.00 | 0.23 | 0.23 | 91 | 1020.9 |
| 20260831121612 | 18 | 359 | 3.2 | 8.0 | 0.00 | 0.23 | 0.23 | 90 | 1020.4 |
| 20260831121055 | 19 | 181 | 0.0 | 4.8 | 0.00 | 0.23 | 0.23 | 91 | 1020.0 |
| 20260831120555 | 19 | 0 | 0.0 | 4.8 | 0.00 | 0.23 | 0.23 | 91 | 1020.2 |
| 20260831120109 | 18 | 173 | 1.6 | 4.8 | 0.00 | 0.23 | 0.23 | 91 | 1020.2 |
| 20260831115554 | 18 | 0 | 0.0 | 0.0 | 0.00 | 0.23 | 0.23 | 90 | 1020.3 |
| 20260831115054 | 18 | 0 | 0.0 | 1.6 | 0.00 | 0.23 | 0.23 | 90 | 1020.4 |
| 20260831114603 | 18 | 0 | 0.0 | 1.6 | 0.00 | 0.23 | 0.23 | 90 | 1020.5 |
| 20260831114052 | 18 | 0 | 0.0 | 1.6 | 0.00 | 0.23 | 0.23 | 90 | 1020.5 |
| 20260831113552 | 18 | 0 | 0.0 | 1.6 | 0.03 | 0.23 | 0.23 | 90 | 1020.5 |
| 20260831113105 | 18 | 0 | 0.0 | 4.8 | 0.03 | 0.23 | 0.23 | 90 | 1020.5 |
| 20260831112556 | 18 | 0 | 0.0 | 6.4 | 0.03 | 0.23 | 0.23 | 90 | 1020.3 |
| 20260831112054 | 18 | 168 | 3.2 | 9.7 | 0.03 | 0.23 | 0.23 | 90 | 1020.7 |
| 20260831111608 | 18 | 168 | 4.8 | 9.7 | 0.03 | 0.23 | 0.23 | 90 | 1020.9 |
| 20260831111054 | 18 | 169 | 4.8 | 8.0 | 0.03 | 0.23 | 0.23 | 90 | 1020.9 |
| 20260831110559 | 18 | 175 | 4.8 | 11.3 | 0.03 | 0.23 | 0.23 | 90 | 1020.7 |
| 20260831110115 | 18 | 172 | 6.4 | 11.3 | 0.03 | 0.23 | 0.23 | 90 | 1020.9 |
| 20260831105555 | 18 | 167 | 4.8 | 9.7 | 0.03 | 0.23 | 0.23 | 90 | 1020.9 |
| 20260831105056 | 18 | 170 | 4.8 | 9.7 | 0.03 | 0.23 | 0.23 | 90 | 1020.9 |
| 20260831104600 | 18 | 172 | 4.8 | 9.7 | 0.05 | 0.23 | 0.23 | 90 | 1021.0 |
| 20260831104054 | 18 | 0 | 0.0 | 1.6 | 0.05 | 0.23 | 0.23 | 90 | 1021.0 |
| 20260831103556 | 18 | 0 | 0.0 | 3.2 | 0.03 | 0.20 | 0.20 | 89 | 1021.0 |
| 20260831103106 | 18 | 0 | 0.0 | 6.4 | 0.05 | 0.20 | 0.20 | 89 | 1021.2 |
| 20260831102558 | 18 | 74 | 1.6 | 6.4 | 0.05 | 0.20 | 0.20 | 89 | 1021.3 |
| 20260831102055 | 18 | 68 | 1.6 | 4.8 | 0.05 | 0.20 | 0.20 | 89 | 1021.5 |
| 20260831101608 | 18 | 0 | 0.0 | 8.0 | 0.05 | 0.20 | 0.20 | 88 | 1021.5 |
| 20260831101055 | 18 | 68 | 1.6 | 8.0 | 0.05 | 0.20 | 0.20 | 88 | 1021.5 |
| 20260831100556 | 18 | 68 | 3.2 | 8.0 | 0.05 | 0.20 | 0.20 | 88 | 1021.5 |
| 20260831100110 | 18 | 74 | 4.8 | 9.7 | 0.05 | 0.20 | 0.20 | 88 | 1021.6 |
| 20260831095554 | 18 | 86 | 4.8 | 12.9 | 0.05 | 0.20 | 0.20 | 88 | 1022.0 |
| 20260831095056 | 18 | 52 | 6.4 | 14.5 | 0.05 | 0.20 | 0.20 | 87 | 1022.0 |
| 20260831094602 | 18 | 71 | 8.0 | 14.5 | 0.03 | 0.18 | 0.18 | 86 | 1022.0 |
| 20260831094055 | 18 | 61 | 6.4 | 12.9 | 0.03 | 0.18 | 0.18 | 87 | 1022.1 |
| 20260831093551 | 18 | 46 | 6.4 | 16.1 | 0.03 | 0.18 | 0.18 | 87 | 1022.1 |
| 20260831093103 | 18 | 52 | 9.7 | 16.1 | 0.00 | 0.15 | 0.15 | 86 | 1022.1 |
| 20260831092554 | 18 | 65 | 8.0 | 14.5 | 0.00 | 0.15 | 0.15 | 86 | 1022.1 |
| 20260831092055 | 18 | 67 | 9.7 | 14.5 | 0.03 | 0.15 | 0.15 | 86 | 1022.1 |
| 20260831091608 | 18 | 69 | 4.8 | 9.7 | 0.10 | 0.15 | 0.15 | 86 | 1022.1 |
| 20260831091055 | 18 | 88 | 3.2 | 11.3 | 0.13 | 0.15 | 0.15 | 86 | 1022.1 |
| 20260831090553 | 18 | 92 | 4.8 | 11.3 | 0.15 | 0.15 | 0.15 | 86 | 1021.7 |
| 20260831085551 | 18 | 104 | 6.4 | 12.9 | 0.15 | 0.15 | 0.15 | 85 | 1021.4 |
| 20260831085051 | 18 | 179 | 1.6 | 17.7 | 0.15 | 0.15 | 0.15 | 85 | 1021.0 |
| 20260831084600 | 18 | 176 | 9.7 | 19.3 | 0.15 | 0.15 | 0.15 | 85 | 1021.0 |
| 20260831084054 | 18 | 174 | 12.9 | 19.3 | 0.15 | 0.15 | 0.15 | 84 | 1021.1 |
| 20260831083554 | 19 | 129 | 11.3 | 22.5 | 0.15 | 0.15 | 0.15 | 83 | 1021.0 |
| 20260831083106 | 19 | 156 | 9.7 | 27.4 | 0.15 | 0.15 | 0.15 | 83 | 1021.0 |
| 20260831082554 | 19 | 153 | 14.5 | 32.2 | 0.15 | 0.15 | 0.15 | 81 | 1021.1 |
| 20260831082055 | 20 | 163 | 22.5 | 33.8 | 0.13 | 0.13 | 0.13 | 79 | 1021.4 |
| 20260831081605 | 20 | 141 | 22.5 | 33.8 | 0.05 | 0.05 | 0.05 | 77 | 1021.3 |
| 20260831081055 | 21 | 140 | 24.1 | 32.2 | 0.03 | 0.03 | 0.03 | 74 | 1020.9 |
| 20260831080558 | 22 | 166 | 8.0 | 24.1 | 0.00 | 0.00 | 0.00 | 65 | 1020.5 |
| 20260831080104 | 23 | 186 | 3.2 | 9.7 | 0.00 | 0.00 | 0.00 | 58 | 1020.4 |
| 20260831075556 | 23 | 194 | 4.8 | 9.7 | 0.00 | 0.00 | 0.00 | 55 | 1020.6 |
| 20260831075051 | 24 | 198 | 4.8 | 9.7 | 0.00 | 0.00 | 0.00 | 54 | 1020.5 |
| 20260831074606 | 25 | 202 | 4.8 | 9.7 | 0.00 | 0.00 | 0.00 | 50 | 1020.4 |
| 20260831074054 | 25 | 202 | 4.8 | 20.9 | 0.00 | 0.00 | 0.00 | 48 | 1020.2 |
| 20260831073555 | 25 | 208 | 4.8 | 24.1 | 0.00 | 0.00 | 0.00 | 49 | 1020.2 |
| 20260831073112 | 25 | 190 | 3.2 | 24.1 | 0.00 | 0.00 | 0.00 | 52 | 1020.1 |
| 20260831072556 | 25 | 170 | 14.5 | 24.1 | 0.00 | 0.00 | 0.00 | 53 | 1020.2 |
| 20260831072055 | 25 | 122 | 6.4 | 12.9 | 0.00 | 0.00 | 0.00 | 56 | 1020.2 |
| 20260831071601 | 25 | 122 | 8.0 | 16.1 | 0.00 | 0.00 | 0.00 | 56 | 1020.2 |
| 20260831071058 | 25 | 141 | 9.7 | 16.1 | 0.00 | 0.00 | 0.00 | 53 | 1020.1 |
| 20260831070554 | 25 | 150 | 3.2 | 9.7 | 0.00 | 0.00 | 0.00 | 49 | 1020.1 |
| 20260831070110 | 25 | 268 | 1.6 | 9.7 | 0.00 | 0.00 | 0.00 | 47 | 1020.0 |
| 20260831065551 | 24 | 264 | 4.8 | 9.7 | 0.00 | 0.00 | 0.00 | 49 | 1020.1 |
| 20260831065054 | 24 | 321 | 3.2 | 9.7 | 0.00 | 0.00 | 0.00 | 53 | 1019.9 |
| 20260831064610 | 25 | 198 | 1.6 | 4.8 | 0.00 | 0.00 | 0.00 | 58 | 1019.8 |
| 20260831064052 | 25 | 0 | 0.0 | 1.6 | 0.00 | 0.00 | 0.00 | 57 | 1019.6 |
| 20260831063553 | 25 | 0 | 0.0 | 3.2 | 0.00 | 0.00 | 0.00 | 57 | 1019.8 |
| 20260831063109 | 25 | 198 | 0.0 | 3.2 | 0.00 | 0.00 | 0.00 | 55 | 1019.9 |
| 20260831062555 | 25 | 198 | 0.0 | 3.2 | 0.00 | 0.00 | 0.00 | 55 | 1019.9 |
| 20260831062057 | 25 | 0 | 0.0 | 12.9 | 0.00 | 0.00 | 0.00 | 55 | 1019.9 |
| 20260831061602 | 25 | 0 | 0.0 | 12.9 | 0.00 | 0.00 | 0.00 | 53 | 1020.0 |
| 20260831061054 | 25 | 243 | 4.8 | 12.9 | 0.00 | 0.00 | 0.00 | 52 | 1020.2 |
| 20260831060554 | 25 | 274 | 3.2 | 8.0 | 0.00 | 0.00 | 0.00 | 54 | 1020.1 |
| 20260831060107 | 25 | 303 | 3.2 | 8.0 | 0.00 | 0.00 | 0.00 | 57 | 1020.2 |
| 20260831055554 | 25 | 306 | 3.2 | 8.0 | 0.00 | 0.00 | 0.00 | 60 | 1020.1 |
| 20260831055054 | 25 | 302 | 3.2 | 11.3 | 0.00 | 0.00 | 0.00 | 61 | 1020.1 |
| 20260831054607 | 25 | 287 | 1.6 | 11.3 | 0.00 | 0.00 | 0.00 | 62 | 1020.1 |
| 20260831054051 | 25 | 293 | 0.0 | 11.3 | 0.00 | 0.00 | 0.00 | 62 | 1020.2 |
| 20260831053558 | 25 | 249 | 3.2 | 11.3 | 0.00 | 0.00 | 0.00 | 60 | 1020.3 |
| 20260831053105 | 26 | 243 | 3.2 | 8.0 | 0.00 | 0.00 | 0.00 | 58 | 1020.2 |
| 20260831052550 | 26 | 236 | 4.8 | 9.7 | 0.00 | 0.00 | 0.00 | 53 | 1020.2 |
| 20260831052050 | 27 | 238 | 3.2 | 9.7 | 0.00 | 0.00 | 0.00 | 49 | 1020.2 |
| 20260831051557 | 26 | 282 | 1.6 | 4.8 | 0.00 | 0.00 | 0.00 | 49 | 1020.2 |
| 20260831051053 | 26 | 263 | 0.0 | 4.8 | 0.00 | 0.00 | 0.00 | 51 | 1020.3 |
| 20260831050552 | 26 | 0 | 0.0 | 4.8 | 0.00 | 0.00 | 0.00 | 51 | 1020.2 |
| 20260831050106 | 26 | 263 | 3.2 | 6.4 | 0.00 | 0.00 | 0.00 | 50 | 1020.0 |
| 20260831045555 | 26 | 263 | 1.6 | 6.4 | 0.00 | 0.10 | 0.00 | 50 | 1020.1 |
| 20260831045055 | 26 | 264 | 1.6 | 4.8 | 0.00 | 0.10 | 0.00 | 50 | 1020.2 |
| 20260831044631 | 26 | 263 | 1.6 | 4.8 | 0.00 | 0.10 | 0.00 | 50 | 1020.0 |
| 20260831044057 | 26 | 264 | 0.0 | 3.2 | 0.00 | 0.10 | 0.00 | 50 | 1019.8 |
| 20260831043551 | 26 | 0 | 0.0 | 3.2 | 0.00 | 0.10 | 0.00 | 50 | 1019.8 |
| 20260831043108 | 26 | 263 | 0.0 | 3.2 | 0.00 | 0.10 | 0.00 | 50 | 1019.9 |
| 20260831042554 | 26 | 263 | 0.0 | 4.8 | 0.00 | 0.10 | 0.00 | 50 | 1019.9 |
| 20260831042051 | 26 | 263 | 1.6 | 4.8 | 0.00 | 0.10 | 0.00 | 50 | 1019.9 |
| 20260831041614 | 26 | 263 | 1.6 | 3.2 | 0.00 | 0.10 | 0.00 | 51 | 1019.9 |
| 20260831041058 | 25 | 263 | 1.6 | 3.2 | 0.00 | 0.10 | 0.00 | 51 | 1019.9 |
| 20260831040555 | 25 | 263 | 1.6 | 3.2 | 0.00 | 0.10 | 0.00 | 51 | 1019.8 |
| 20260831035554 | 25 | 0 | 0.0 | 0.0 | 0.00 | 0.10 | 0.00 | 53 | 1019.9 |
| 20260831035052 | 25 | 0 | 0.0 | 3.2 | 0.00 | 0.10 | 0.00 | 53 | 1019.8 |
| 20260831034607 | 25 | 0 | 0.0 | 4.8 | 0.00 | 0.10 | 0.00 | 53 | 1019.7 |
| 20260831034054 | 25 | 0 | 1.6 | 4.8 | 0.00 | 0.10 | 0.00 | 53 | 1019.6 |
| 20260831033554 | 25 | 263 | 0.0 | 3.2 | 0.00 | 0.10 | 0.00 | 53 | 1019.5 |
| 20260831033101 | 26 | 263 | 1.6 | 6.4 | 0.00 | 0.10 | 0.00 | 52 | 1019.4 |
| 20260831032555 | 26 | 263 | 1.6 | 6.4 | 0.00 | 0.10 | 0.00 | 52 | 1019.4 |
| 20260831032051 | 26 | 264 | 3.2 | 6.4 | 0.00 | 0.10 | 0.00 | 51 | 1019.4 |
| 20260831031608 | 26 | 264 | 3.2 | 6.4 | 0.00 | 0.10 | 0.00 | 50 | 1019.3 |
| 20260831031054 | 26 | 266 | 1.6 | 6.4 | 0.00 | 0.10 | 0.00 | 50 | 1019.1 |
| 20260831030554 | 25 | 267 | 3.2 | 6.4 | 0.00 | 0.10 | 0.00 | 50 | 1019.0 |
| 20260831025553 | 26 | 269 | 3.2 | 6.4 | 0.00 | 0.10 | 0.00 | 52 | 1018.8 |
| 20260831025054 | 26 | 271 | 3.2 | 4.8 | 0.00 | 0.10 | 0.00 | 52 | 1018.8 |
| 20260831024600 | 26 | 271 | 1.6 | 4.8 | 0.00 | 0.10 | 0.00 | 52 | 1018.8 |
| 20260831024052 | 26 | 274 | 1.6 | 4.8 | 0.00 | 0.10 | 0.00 | 51 | 1018.7 |
| 20260831023552 | 26 | 274 | 1.6 | 4.8 | 0.00 | 0.10 | 0.00 | 51 | 1018.6 |
| 20260831023105 | 26 | 278 | 3.2 | 4.8 | 0.00 | 0.10 | 0.00 | 49 | 1018.5 |
| 20260831022556 | 26 | 280 | 3.2 | 4.8 | 0.00 | 0.10 | 0.00 | 47 | 1018.4 |
| 20260831022057 | 27 | 0 | 1.6 | 4.8 | 0.00 | 0.10 | 0.00 | 45 | 1018.4 |
| 20260831021602 | 27 | 0 | 0.0 | 0.0 | 0.00 | 0.10 | 0.00 | 44 | 1018.4 |
| 20260831021056 | 27 | 0 | 0.0 | 1.6 | 0.00 | 0.10 | 0.00 | 43 | 1018.4 |
| 20260831020555 | 28 | 0 | 0.0 | 3.2 | 0.00 | 0.10 | 0.00 | 41 | 1018.3 |
| 20260831020105 | 28 | 0 | 0.0 | 3.2 | 0.00 | 0.10 | 0.00 | 40 | 1018.3 |
| 20260831015555 | 28 | 351 | 1.6 | 4.8 | 0.00 | 0.10 | 0.00 | 38 | 1018.3 |
| 20260831015054 | 29 | 351 | 0.0 | 4.8 | 0.00 | 0.10 | 0.00 | 37 | 1018.3 |
| 20260831014604 | 29 | 351 | 1.6 | 4.8 | 0.00 | 0.10 | 0.00 | 36 | 1018.2 |
| 20260831014056 | 29 | 0 | 0.0 | 3.2 | 0.00 | 0.10 | 0.00 | 36 | 1018.3 |
| 20260831013555 | 29 | 351 | 0.0 | 4.8 | 0.00 | 0.10 | 0.00 | 36 | 1018.3 |
| 20260831013109 | 30 | 351 | 1.6 | 8.0 | 0.00 | 0.10 | 0.00 | 36 | 1018.3 |
| 20260831012558 | 30 | 351 | 3.2 | 9.7 | 0.00 | 0.10 | 0.00 | 36 | 1018.3 |
| 20260831012056 | 30 | 352 | 3.2 | 9.7 | 0.00 | 0.10 | 0.00 | 35 | 1018.2 |
| 20260831011602 | 31 | 316 | 3.2 | 9.7 | 0.00 | 0.10 | 0.00 | 33 | 1018.2 |
| 20260831011056 | 31 | 321 | 3.2 | 9.7 | 0.00 | 0.10 | 0.00 | 33 | 1018.2 |
| 20260831010557 | 31 | 323 | 3.2 | 14.5 | 0.00 | 0.10 | 0.00 | 33 | 1018.2 |
| 20260831005559 | 32 | 288 | 8.0 | 17.7 | 0.00 | 0.10 | 0.00 | 31 | 1018.1 |
| 20260831005057 | 32 | 312 | 8.0 | 17.7 | 0.00 | 0.10 | 0.00 | 30 | 1018.0 |
| 20260831004606 | 32 | 291 | 4.8 | 11.3 | 0.00 | 0.10 | 0.00 | 30 | 1018.1 |
| 20260831004054 | 32 | 320 | 4.8 | 11.3 | 0.00 | 0.10 | 0.00 | 30 | 1018.2 |
| 20260831003600 | 33 | 321 | 4.8 | 9.7 | 0.00 | 0.10 | 0.00 | 30 | 1018.2 |
| 20260831003107 | 33 | 236 | 3.2 | 11.3 | 0.00 | 0.10 | 0.00 | 30 | 1018.2 |
| 20260831002556 | 33 | 0 | 4.8 | 11.3 | 0.00 | 0.10 | 0.00 | 30 | 1018.2 |
| 20260831002055 | 33 | 278 | 1.6 | 14.5 | 0.00 | 0.10 | 0.00 | 30 | 1018.2 |
| 20260831001603 | 33 | 281 | 4.8 | 14.5 | 0.00 | 0.10 | 0.00 | 29 | 1018.2 |
| 20260831001056 | 33 | 313 | 4.8 | 9.7 | 0.00 | 0.10 | 0.00 | 29 | 1018.3 |
| 20260831000555 | 33 | 293 | 1.6 | 12.9 | 0.00 | 0.10 | 0.00 | 29 | 1018.3 |
| 20260831000108 | 33 | 264 | 4.8 | 12.9 | 0.00 | 0.10 | 0.00 | 29 | 1018.2 |
| 20260830235559 | 33 | 238 | 4.8 | 9.7 | 0.00 | 0.13 | 0.00 | 29 | 1018.2 |
| 20260830235057 | 33 | 308 | 3.2 | 9.7 | 0.00 | 0.13 | 0.00 | 28 | 1018.3 |
| 20260830234604 | 33 | 311 | 1.6 | 8.0 | 0.00 | 0.13 | 0.00 | 29 | 1018.3 |
| 20260830234054 | 33 | 258 | 3.2 | 9.7 | 0.00 | 0.13 | 0.00 | 29 | 1018.3 |
| 20260830233554 | 33 | 0 | 3.2 | 12.9 | 0.00 | 0.13 | 0.00 | 30 | 1018.3 |
| 20260830233106 | 33 | 339 | 3.2 | 12.9 | 0.00 | 0.13 | 0.00 | 30 | 1018.4 |
| 20260830232557 | 32 | 1 | 8.0 | 12.9 | 0.00 | 0.13 | 0.00 | 30 | 1018.4 |
| 20260830232055 | 33 | 1 | 4.8 | 9.7 | 0.00 | 0.13 | 0.00 | 29 | 1018.3 |
| 20260830231607 | 33 | 0 | 3.2 | 16.1 | 0.00 | 0.13 | 0.00 | 29 | 1018.4 |
| 20260830231054 | 33 | 303 | 8.0 | 16.1 | 0.00 | 0.13 | 0.00 | 29 | 1018.5 |
| 20260830230555 | 33 | 299 | 3.2 | 16.1 | 0.00 | 0.13 | 0.00 | 29 | 1018.5 |
| 20260830230107 | 33 | 296 | 9.7 | 16.1 | 0.00 | 0.13 | 0.00 | 29 | 1018.5 |
| 20260830225555 | 33 | 277 | 8.0 | 16.1 | 0.00 | 0.13 | 0.00 | 29 | 1018.7 |
| 20260830225055 | 33 | 293 | 9.7 | 14.5 | 0.00 | 0.13 | 0.00 | 28 | 1018.7 |
| 20260830224603 | 33 | 271 | 3.2 | 8.0 | 0.00 | 0.13 | 0.00 | 29 | 1018.8 |
| 20260830224052 | 33 | 261 | 0.0 | 8.0 | 0.00 | 0.13 | 0.00 | 30 | 1018.8 |
| 20260830223555 | 33 | 217 | 3.2 | 16.1 | 0.00 | 0.13 | 0.00 | 30 | 1018.9 |
| 20260830223108 | 33 | 340 | 8.0 | 16.1 | 0.00 | 0.13 | 0.00 | 29 | 1019.0 |
| 20260830222555 | 32 | 346 | 4.8 | 12.9 | 0.00 | 0.13 | 0.00 | 32 | 1019.1 |
| 20260830222059 | 32 | 10 | 6.4 | 12.9 | 0.00 | 0.13 | 0.00 | 32 | 1019.1 |
| 20260830221610 | 32 | 356 | 6.4 | 16.1 | 0.00 | 0.13 | 0.00 | 32 | 1019.2 |
| 20260830221057 | 32 | 13 | 3.2 | 16.1 | 0.00 | 0.13 | 0.00 | 31 | 1019.4 |
| 20260830220555 | 32 | 298 | 8.0 | 16.1 | 0.00 | 0.13 | 0.00 | 31 | 1019.5 |
| 20260830220108 | 32 | 334 | 8.0 | 16.1 | 0.00 | 0.13 | 0.00 | 31 | 1019.6 |
| 20260830215556 | 32 | 295 | 6.4 | 17.7 | 0.00 | 0.25 | 0.00 | 31 | 1019.7 |
| 20260830215055 | 32 | 239 | 11.3 | 17.7 | 0.00 | 0.25 | 0.00 | 31 | 1019.8 |
| 20260830214609 | 32 | 302 | 6.4 | 20.9 | 0.00 | 0.25 | 0.00 | 31 | 1019.8 |
| 20260830214055 | 32 | 319 | 8.0 | 20.9 | 0.00 | 0.25 | 0.00 | 31 | 1019.9 |
| 20260830213554 | 32 | 259 | 8.0 | 20.9 | 0.00 | 0.25 | 0.00 | 32 | 1019.9 |
| 20260830213108 | 32 | 325 | 9.7 | 20.9 | 0.00 | 0.25 | 0.00 | 32 | 1020.0 |
| 20260830212558 | 32 | 340 | 6.4 | 17.7 | 0.00 | 0.25 | 0.00 | 32 | 1020.0 |
| 20260830212055 | 32 | 308 | 4.8 | 17.7 | 0.00 | 0.25 | 0.00 | 32 | 1020.2 |
| 20260830211606 | 32 | 323 | 9.7 | 16.1 | 0.00 | 0.25 | 0.00 | 31 | 1020.2 |
| 20260830211055 | 32 | 317 | 6.4 | 14.5 | 0.00 | 0.25 | 0.00 | 34 | 1020.3 |
| 20260830210556 | 32 | 359 | 9.7 | 24.1 | 0.00 | 0.25 | 0.00 | 31 | 1020.4 |
| 20260830210108 | 32 | 297 | 8.0 | 24.1 | 0.00 | 0.25 | 0.00 | 31 | 1020.4 |
| 20260830205556 | 32 | 359 | 3.2 | 16.1 | 0.00 | 0.30 | 0.00 | 34 | 1020.5 |
| 20260830205054 | 32 | 8 | 8.0 | 22.5 | 0.00 | 0.30 | 0.00 | 32 | 1020.5 |
| 20260830204605 | 32 | 360 | 6.4 | 22.5 | 0.00 | 0.30 | 0.00 | 32 | 1020.4 |
| 20260830204056 | 32 | 303 | 11.3 | 22.5 | 0.00 | 0.30 | 0.00 | 31 | 1020.7 |
| 20260830203555 | 32 | 259 | 6.4 | 14.5 | 0.00 | 0.30 | 0.00 | 32 | 1020.7 |
| 20260830203107 | 32 | 348 | 8.0 | 16.1 | 0.00 | 0.30 | 0.00 | 32 | 1020.8 |
| 20260830202556 | 32 | 328 | 8.0 | 20.9 | 0.00 | 0.30 | 0.00 | 34 | 1020.9 |
| 20260830202119 | 32 | 329 | 9.7 | 20.9 | 0.00 | 0.30 | 0.00 | 33 | 1021.0 |
| 20260830201616 | 32 | 276 | 11.3 | 20.9 | 0.00 | 0.30 | 0.00 | 33 | 1021.1 |
| 20260830201056 | 31 | 314 | 9.7 | 19.3 | 0.00 | 0.30 | 0.00 | 35 | 1021.2 |
| 20260830200554 | 31 | 13 | 6.4 | 17.7 | 0.00 | 0.30 | 0.00 | 35 | 1021.3 |
| 20260830200107 | 31 | 13 | 6.4 | 17.7 | 0.00 | 0.30 | 0.00 | 37 | 1021.3 |
| 20260830195556 | 31 | 26 | 8.0 | 16.1 | 0.00 | 0.30 | 0.00 | 36 | 1021.3 |
| 20260830195056 | 31 | 134 | 1.6 | 14.5 | 0.00 | 0.30 | 0.00 | 37 | 1021.5 |
| 20260830194610 | 31 | 350 | 8.0 | 16.1 | 0.00 | 0.30 | 0.00 | 37 | 1021.6 |
| 20260830194056 | 31 | 338 | 6.4 | 16.1 | 0.00 | 0.30 | 0.00 | 39 | 1021.6 |
| 20260830193555 | 31 | 351 | 6.4 | 14.5 | 0.00 | 0.30 | 0.00 | 39 | 1021.6 |
| 20260830193107 | 30 | 356 | 4.8 | 16.1 | 0.00 | 0.30 | 0.00 | 39 | 1021.8 |
| 20260830192554 | 31 | 335 | 8.0 | 16.1 | 0.00 | 0.30 | 0.00 | 39 | 1021.9 |
| 20260830192057 | 30 | 326 | 4.8 | 16.1 | 0.00 | 0.30 | 0.00 | 40 | 1021.9 |
| 20260830191604 | 30 | 359 | 8.0 | 16.1 | 0.00 | 0.30 | 0.00 | 41 | 1022.0 |
| 20260830191054 | 30 | 316 | 9.7 | 16.1 | 0.00 | 0.30 | 0.00 | 41 | 1022.0 |
| 20260830190554 | 30 | 340 | 8.0 | 14.5 | 0.00 | 0.30 | 0.00 | 41 | 1022.1 |
| 20260830185558 | 30 | 1 | 6.4 | 11.3 | 0.00 | 0.30 | 0.00 | 45 | 1022.2 |
| 20260830185056 | 29 | 349 | 4.8 | 9.7 | 0.00 | 0.30 | 0.00 | 45 | 1022.5 |
| 20260830184609 | 28 | 53 | 3.2 | 8.0 | 0.00 | 0.30 | 0.00 | 46 | 1022.5 |
| 20260830184054 | 28 | 0 | 3.2 | 9.7 | 0.00 | 0.30 | 0.00 | 46 | 1022.6 |
| 20260830183556 | 28 | 41 | 3.2 | 12.9 | 0.00 | 0.30 | 0.00 | 47 | 1022.7 |
| 20260830183105 | 28 | 6 | 4.8 | 12.9 | 0.00 | 0.30 | 0.00 | 47 | 1022.8 |
| 20260830182556 | 28 | 4 | 4.8 | 12.9 | 0.00 | 0.30 | 0.00 | 48 | 1022.9 |
| 20260830182053 | 28 | 10 | 3.2 | 9.7 | 0.00 | 0.30 | 0.00 | 46 | 1022.9 |
| 20260830181604 | 28 | 39 | 3.2 | 6.4 | 0.00 | 0.30 | 0.00 | 46 | 1023.0 |
| 20260830181052 | 28 | 34 | 3.2 | 8.0 | 0.00 | 0.30 | 0.00 | 46 | 1022.9 |
| 20260830180557 | 28 | 25 | 3.2 | 8.0 | 0.00 | 0.30 | 0.00 | 48 | 1023.1 |
| 20260830180114 | 28 | 52 | 1.6 | 8.0 | 0.00 | 0.30 | 0.00 | 47 | 1023.0 |
| 20260830175555 | 28 | 43 | 3.2 | 6.4 | 0.00 | 0.30 | 0.00 | 46 | 1023.1 |
| 20260830175056 | 27 | 0 | 1.6 | 8.0 | 0.00 | 0.30 | 0.00 | 48 | 1023.1 |
| 20260830174616 | 27 | 11 | 3.2 | 8.0 | 0.00 | 0.30 | 0.00 | 49 | 1023.3 |
| 20260830174054 | 27 | 360 | 3.2 | 9.7 | 0.00 | 0.30 | 0.00 | 50 | 1023.2 |
| 20260830173554 | 27 | 33 | 3.2 | 9.7 | 0.00 | 0.30 | 0.00 | 53 | 1023.4 |
| 20260830173105 | 27 | 44 | 3.2 | 8.0 | 0.00 | 0.30 | 0.00 | 52 | 1023.4 |
| 20260830172555 | 26 | 13 | 3.2 | 8.0 | 0.00 | 0.30 | 0.00 | 54 | 1023.5 |
| 20260830172054 | 26 | 35 | 1.6 | 6.4 | 0.00 | 0.30 | 0.00 | 57 | 1023.5 |
| 20260830171602 | 26 | 37 | 3.2 | 6.4 | 0.00 | 0.30 | 0.00 | 58 | 1023.5 |
| 20260830171055 | 26 | 39 | 3.2 | 6.4 | 0.00 | 0.30 | 0.00 | 59 | 1023.6 |
| 20260830170555 | 26 | 39 | 1.6 | 4.8 | 0.00 | 0.30 | 0.00 | 57 | 1023.6 |
| 20260830165556 | 26 | 41 | 0.0 | 4.8 | 0.00 | 0.30 | 0.00 | 58 | 1023.6 |
| 20260830165057 | 26 | 42 | 3.2 | 6.4 | 0.00 | 0.30 | 0.00 | 58 | 1023.6 |
| 20260830164622 | 25 | 0 | 1.6 | 6.4 | 0.00 | 0.30 | 0.00 | 59 | 1023.7 |
| 20260830164055 | 25 | 30 | 0.0 | 4.8 | 0.00 | 0.30 | 0.00 | 61 | 1023.6 |
| 20260830163556 | 25 | 0 | 0.0 | 4.8 | 0.00 | 0.30 | 0.00 | 63 | 1023.7 |
| 20260830163102 | 24 | 30 | 0.0 | 4.8 | 0.00 | 0.30 | 0.00 | 63 | 1023.7 |
| 20260830162555 | 24 | 0 | 0.0 | 4.8 | 0.00 | 0.30 | 0.00 | 63 | 1023.8 |
| 20260830162054 | 23 | 30 | 0.0 | 3.2 | 0.00 | 0.30 | 0.00 | 64 | 1023.9 |
| 20260830161607 | 23 | 0 | 1.6 | 4.8 | 0.00 | 0.30 | 0.00 | 64 | 1023.8 |
| 20260830161054 | 23 | 30 | 0.0 | 4.8 | 0.00 | 0.30 | 0.00 | 66 | 1023.7 |
| 20260830160556 | 23 | 30 | 0.0 | 3.2 | 0.00 | 0.30 | 0.00 | 66 | 1023.8 |
| 20260830160104 | 23 | 0 | 0.0 | 3.2 | 0.00 | 0.30 | 0.00 | 66 | 1023.8 |
| 20260830155554 | 23 | 0 | 0.0 | 3.2 | 0.00 | 0.30 | 0.00 | 67 | 1023.9 |
| 20260830155057 | 23 | 30 | 0.0 | 4.8 | 0.00 | 0.30 | 0.00 | 67 | 1023.8 |
| 20260830154603 | 23 | 0 | 0.0 | 4.8 | 0.00 | 0.30 | 0.00 | 68 | 1023.8 |
| 20260830154055 | 22 | 0 | 1.6 | 4.8 | 0.00 | 0.30 | 0.00 | 70 | 1023.7 |
| 20260830153555 | 22 | 30 | 1.6 | 4.8 | 0.00 | 0.30 | 0.00 | 70 | 1023.7 |
| 20260830153101 | 22 | 30 | 0.0 | 3.2 | 0.00 | 0.30 | 0.00 | 71 | 1023.6 |
| 20260830152556 | 22 | 0 | 0.0 | 3.2 | 0.00 | 0.30 | 0.00 | 72 | 1023.5 |
| 20260830152058 | 22 | 0 | 0.0 | 3.2 | 0.00 | 0.30 | 0.00 | 72 | 1023.5 |
| 20260830151605 | 22 | 30 | 0.0 | 6.4 | 0.00 | 0.30 | 0.00 | 74 | 1023.4 |
| 20260830151100 | 22 | 0 | 0.0 | 6.4 | 0.00 | 0.30 | 0.00 | 72 | 1023.5 |
| 20260830150558 | 22 | 30 | 3.2 | 6.4 | 0.00 | 0.30 | 0.00 | 72 | 1023.5 |
| 20260830150104 | 22 | 30 | 0.0 | 1.6 | 0.00 | 0.30 | 0.00 | 71 | 1023.3 |
| 20260830145559 | 22 | 0 | 0.0 | 0.0 | 0.00 | 0.30 | 0.00 | 72 | 1023.5 |
| 20260830145057 | 22 | 0 | 0.0 | 0.0 | 0.00 | 0.30 | 0.00 | 72 | 1023.4 |
| 20260830144602 | 22 | 0 | 0.0 | 1.6 | 0.00 | 0.30 | 0.00 | 73 | 1023.5 |
| 20260830144054 | 22 | 0 | 0.0 | 3.2 | 0.00 | 0.30 | 0.00 | 74 | 1023.5 |
| 20260830143600 | 22 | 0 | 0.0 | 3.2 | 0.00 | 0.30 | 0.00 | 74 | 1023.7 |
| 20260830143107 | 22 | 0 | 0.0 | 3.2 | 0.00 | 0.30 | 0.00 | 74 | 1023.5 |
| 20260830142554 | 22 | 30 | 0.0 | 4.8 | 0.00 | 0.30 | 0.00 | 75 | 1023.6 |
| 20260830142055 | 21 | 0 | 0.0 | 6.4 | 0.00 | 0.30 | 0.00 | 75 | 1023.6 |
| 20260830141603 | 22 | 30 | 1.6 | 6.4 | 0.00 | 0.30 | 0.00 | 75 | 1023.6 |
| 20260830141056 | 21 | 30 | 3.2 | 12.9 | 0.00 | 0.30 | 0.00 | 74 | 1023.7 |
| 20260830140555 | 21 | 30 | 4.8 | 12.9 | 0.00 | 0.30 | 0.00 | 75 | 1023.5 |
| 20260830140106 | 21 | 27 | 8.0 | 12.9 | 0.00 | 0.30 | 0.00 | 74 | 1023.4 |
| 20260830135555 | 21 | 11 | 6.4 | 12.9 | 0.00 | 0.30 | 0.00 | 75 | 1023.4 |
| 20260830135055 | 21 | 8 | 4.8 | 8.0 | 0.00 | 0.30 | 0.00 | 75 | 1023.4 |
| 20260830134607 | 21 | 1 | 3.2 | 6.4 | 0.00 | 0.30 | 0.00 | 75 | 1023.5 |
| 20260830134055 | 21 | 349 | 1.6 | 11.3 | 0.00 | 0.30 | 0.00 | 75 | 1023.2 |
| 20260830133554 | 21 | 345 | 3.2 | 11.3 | 0.00 | 0.30 | 0.00 | 75 | 1023.2 |
| 20260830133112 | 21 | 356 | 8.0 | 11.3 | 0.00 | 0.30 | 0.00 | 75 | 1023.2 |
| 20260830132557 | 21 | 334 | 3.2 | 9.7 | 0.00 | 0.30 | 0.00 | 77 | 1023.1 |
| 20260830132054 | 21 | 311 | 4.8 | 9.7 | 0.00 | 0.30 | 0.00 | 77 | 1022.9 |
| 20260830131605 | 21 | 329 | 4.8 | 8.0 | 0.00 | 0.30 | 0.00 | 77 | 1022.8 |
| 20260830131057 | 21 | 20 | 0.0 | 9.7 | 0.00 | 0.30 | 0.00 | 77 | 1022.9 |
| 20260830130554 | 21 | 20 | 3.2 | 9.7 | 0.00 | 0.30 | 0.00 | 77 | 1022.9 |
| 20260830130107 | 21 | 20 | 6.4 | 9.7 | 0.00 | 0.30 | 0.00 | 76 | 1022.7 |
| 20260830125554 | 21 | 15 | 4.8 | 11.3 | 0.00 | 0.30 | 0.00 | 76 | 1022.5 |